sensor_id;sensor_type;location;lat;lon;timestamp;temperature;humidity
5278;DHT22;2662;51.194;6.614;2023-04-01T00:01:26;11.40;99.90
5278;DHT22;2662;51.194;6.614;2023-04-01T00:03:53;11.40;99.90
5278;DHT22;2662;51.194;6.614;2023-04-01T00:06:20;11.30;99.90
5278;DHT22;2662;51.194;6.614;2023-04-01T00:08:46;11.30;99.90
5278;DHT22;2662;51.194;6.614;2023-04-01T00:11:14;11.30;99.90
5278;DHT22;2662;51.194;6.614;2023-04-01T00:13:41;11.30;99.90
5278;DHT22;2662;51.194;6.614;2023-04-01T00:16:09;11.20;99.90
5278;DHT22;2662;51.194;6.614;2023-04-01T00:18:36;11.20;99.90
5278;DHT22;2662;51.194;6.614;2023-04-01T00:21:03;11.30;99.90
5278;DHT22;2662;51.194;6.614;2023-04-01T00:23:30;11.30;99.90
5278;DHT22;2662;51.194;6.614;2023-04-01T00:25:59;11.30;99.90
5278;DHT22;2662;51.194;6.614;2023-04-01T00:28:26;11.20;99.90
5278;DHT22;2662;51.194;6.614;2023-04-01T00:30:53;11.20;99.90
5278;DHT22;2662;51.194;6.614;2023-04-01T00:33:21;11.20;99.90
5278;DHT22;2662;51.194;6.614;2023-04-01T00:35:48;11.20;99.90
5278;DHT22;2662;51.194;6.614;2023-04-01T00:38:14;11.20;99.90
5278;DHT22;2662;51.194;6.614;2023-04-01T00:40:44;11.20;99.90
5278;DHT22;2662;51.194;6.614;2023-04-01T00:43:12;11.20;99.90
5278;DHT22;2662;51.194;6.614;2023-04-01T00:45:41;11.30;99.90
5278;DHT22;2662;51.194;6.614;2023-04-01T00:48:10;11.30;99.90
5278;DHT22;2662;51.194;6.614;2023-04-01T00:50:40;11.30;99.90
5278;DHT22;2662;51.194;6.614;2023-04-01T00:53:09;11.30;99.90
5278;DHT22;2662;51.194;6.614;2023-04-01T00:55:40;11.30;99.90
5278;DHT22;2662;51.194;6.614;2023-04-01T00:58:13;11.20;99.90
5278;DHT22;2662;51.194;6.614;2023-04-01T01:00:41;11.30;99.90
5278;DHT22;2662;51.194;6.614;2023-04-01T01:03:09;11.30;99.90
5278;DHT22;2662;51.194;6.614;2023-04-01T01:05:52;11.30;99.90
5278;DHT22;2662;51.194;6.614;2023-04-01T01:08:26;11.30;99.90
5278;DHT22;2662;51.194;6.614;2023-04-01T01:10:57;11.30;99.90
5278;DHT22;2662;51.194;6.614;2023-04-01T01:13:28;11.30;99.90
5278;DHT22;2662;51.194;6.614;2023-04-01T01:15:59;11.30;99.90
5278;DHT22;2662;51.194;6.614;2023-04-01T01:18:33;11.30;99.90
5278;DHT22;2662;51.194;6.614;2023-04-01T01:21:30;11.40;99.90
5278;DHT22;2662;51.194;6.614;2023-04-01T01:24:16;11.30;99.90
5278;DHT22;2662;51.194;6.614;2023-04-01T01:26:54;11.20;99.90
5278;DHT22;2662;51.194;6.614;2023-04-01T01:29:44;11.20;99.90
5278;DHT22;2662;51.194;6.614;2023-04-01T01:32:22;11.20;99.90
5278;DHT22;2662;51.194;6.614;2023-04-01T01:35:16;11.10;99.90
5278;DHT22;2662;51.194;6.614;2023-04-01T01:37:46;11.10;99.90
5278;DHT22;2662;51.194;6.614;2023-04-01T01:40:14;11.10;99.90
5278;DHT22;2662;51.194;6.614;2023-04-01T01:42:45;11.10;99.90
5278;DHT22;2662;51.194;6.614;2023-04-01T01:45:15;11.10;99.90
5278;DHT22;2662;51.194;6.614;2023-04-01T01:47:43;11.10;99.90
5278;DHT22;2662;51.194;6.614;2023-04-01T01:50:13;11.10;99.90
5278;DHT22;2662;51.194;6.614;2023-04-01T01:52:40;11.00;99.90
5278;DHT22;2662;51.194;6.614;2023-04-01T01:55:26;11.10;99.90
5278;DHT22;2662;51.194;6.614;2023-04-01T01:57:55;11.10;99.90
5278;DHT22;2662;51.194;6.614;2023-04-01T02:00:23;11.10;99.90
5278;DHT22;2662;51.194;6.614;2023-04-01T02:02:50;11.10;99.90
5278;DHT22;2662;51.194;6.614;2023-04-01T02:05:21;11.10;99.90
5278;DHT22;2662;51.194;6.614;2023-04-01T02:07:52;11.10;99.90
5278;DHT22;2662;51.194;6.614;2023-04-01T02:10:25;11.00;99.90
5278;DHT22;2662;51.194;6.614;2023-04-01T02:12:57;11.00;99.90
5278;DHT22;2662;51.194;6.614;2023-04-01T02:15:27;11.00;99.90
5278;DHT22;2662;51.194;6.614;2023-04-01T02:17:56;11.00;99.90
5278;DHT22;2662;51.194;6.614;2023-04-01T02:20:26;11.00;99.90
5278;DHT22;2662;51.194;6.614;2023-04-01T02:22:56;10.90;99.90
5278;DHT22;2662;51.194;6.614;2023-04-01T02:25:27;10.80;99.90
5278;DHT22;2662;51.194;6.614;2023-04-01T02:27:57;10.80;99.90
5278;DHT22;2662;51.194;6.614;2023-04-01T02:30:25;10.80;99.90
5278;DHT22;2662;51.194;6.614;2023-04-01T02:32:53;10.70;99.90
5278;DHT22;2662;51.194;6.614;2023-04-01T02:35:22;10.70;99.90
5278;DHT22;2662;51.194;6.614;2023-04-01T02:37:52;10.70;99.90
5278;DHT22;2662;51.194;6.614;2023-04-01T02:40:20;10.70;99.90
5278;DHT22;2662;51.194;6.614;2023-04-01T02:42:47;10.60;99.90
5278;DHT22;2662;51.194;6.614;2023-04-01T02:45:14;10.60;99.90
5278;DHT22;2662;51.194;6.614;2023-04-01T02:47:41;10.70;99.90
5278;DHT22;2662;51.194;6.614;2023-04-01T02:50:08;10.70;99.90
5278;DHT22;2662;51.194;6.614;2023-04-01T02:52:35;10.70;99.90
5278;DHT22;2662;51.194;6.614;2023-04-01T02:55:04;10.70;99.90
5278;DHT22;2662;51.194;6.614;2023-04-01T02:57:31;10.70;99.90
5278;DHT22;2662;51.194;6.614;2023-04-01T02:59:58;10.70;99.90
5278;DHT22;2662;51.194;6.614;2023-04-01T03:02:25;10.70;99.90
5278;DHT22;2662;51.194;6.614;2023-04-01T03:04:52;10.70;99.90
5278;DHT22;2662;51.194;6.614;2023-04-01T03:07:19;10.70;99.90
5278;DHT22;2662;51.194;6.614;2023-04-01T03:09:45;10.70;99.90
5278;DHT22;2662;51.194;6.614;2023-04-01T03:12:13;10.70;99.90
5278;DHT22;2662;51.194;6.614;2023-04-01T03:14:40;10.70;99.90
5278;DHT22;2662;51.194;6.614;2023-04-01T03:17:07;10.60;99.90
5278;DHT22;2662;51.194;6.614;2023-04-01T03:19:33;10.70;99.90
5278;DHT22;2662;51.194;6.614;2023-04-01T03:22:00;10.60;99.90
5278;DHT22;2662;51.194;6.614;2023-04-01T03:24:27;10.60;99.90
5278;DHT22;2662;51.194;6.614;2023-04-01T03:26:54;10.60;99.90
5278;DHT22;2662;51.194;6.614;2023-04-01T03:29:22;10.60;99.90
5278;DHT22;2662;51.194;6.614;2023-04-01T03:31:48;10.60;99.90
5278;DHT22;2662;51.194;6.614;2023-04-01T03:34:15;10.60;99.90
5278;DHT22;2662;51.194;6.614;2023-04-01T03:36:42;10.60;99.90
5278;DHT22;2662;51.194;6.614;2023-04-01T03:39:08;10.70;99.90
5278;DHT22;2662;51.194;6.614;2023-04-01T03:41:35;10.70;99.90
5278;DHT22;2662;51.194;6.614;2023-04-01T03:44:02;10.60;99.90
5278;DHT22;2662;51.194;6.614;2023-04-01T03:46:30;10.70;99.90
5278;DHT22;2662;51.194;6.614;2023-04-01T03:48:57;10.70;99.90
5278;DHT22;2662;51.194;6.614;2023-04-01T03:51:24;10.70;99.90
5278;DHT22;2662;51.194;6.614;2023-04-01T03:53:51;10.70;99.90
5278;DHT22;2662;51.194;6.614;2023-04-01T03:56:17;10.80;99.90
5278;DHT22;2662;51.194;6.614;2023-04-01T03:58:44;10.70;99.90
5278;DHT22;2662;51.194;6.614;2023-04-01T04:01:16;10.70;99.90
5278;DHT22;2662;51.194;6.614;2023-04-01T04:03:44;10.70;99.90
5278;DHT22;2662;51.194;6.614;2023-04-01T04:06:12;10.80;99.90
5278;DHT22;2662;51.194;6.614;2023-04-01T04:08:38;10.70;99.90
5278;DHT22;2662;51.194;6.614;2023-04-01T04:11:05;10.80;99.90
5278;DHT22;2662;51.194;6.614;2023-04-01T04:13:32;10.80;99.90
5278;DHT22;2662;51.194;6.614;2023-04-01T04:15:59;10.80;99.90
5278;DHT22;2662;51.194;6.614;2023-04-01T04:18:26;10.80;99.90
5278;DHT22;2662;51.194;6.614;2023-04-01T04:20:54;10.80;99.90
5278;DHT22;2662;51.194;6.614;2023-04-01T04:23:21;10.80;99.90
5278;DHT22;2662;51.194;6.614;2023-04-01T04:25:56;10.80;99.90
5278;DHT22;2662;51.194;6.614;2023-04-01T04:28:23;10.90;99.90
5278;DHT22;2662;51.194;6.614;2023-04-01T04:30:50;10.90;99.90
5278;DHT22;2662;51.194;6.614;2023-04-01T04:33:16;10.80;99.90
5278;DHT22;2662;51.194;6.614;2023-04-01T04:35:43;10.90;99.90
5278;DHT22;2662;51.194;6.614;2023-04-01T04:38:11;10.90;99.90
5278;DHT22;2662;51.194;6.614;2023-04-01T04:40:38;10.90;99.90
5278;DHT22;2662;51.194;6.614;2023-04-01T04:43:06;10.90;99.90
5278;DHT22;2662;51.194;6.614;2023-04-01T04:45:32;11.00;99.90
5278;DHT22;2662;51.194;6.614;2023-04-01T04:47:59;11.00;99.90
5278;DHT22;2662;51.194;6.614;2023-04-01T04:50:26;11.00;99.90
5278;DHT22;2662;51.194;6.614;2023-04-01T04:52:53;10.90;99.90
5278;DHT22;2662;51.194;6.614;2023-04-01T04:55:21;10.90;99.90
5278;DHT22;2662;51.194;6.614;2023-04-01T04:57:48;10.90;99.90
5278;DHT22;2662;51.194;6.614;2023-04-01T05:00:15;10.90;99.90
5278;DHT22;2662;51.194;6.614;2023-04-01T05:02:42;10.90;99.90
5278;DHT22;2662;51.194;6.614;2023-04-01T05:05:09;10.90;99.90
5278;DHT22;2662;51.194;6.614;2023-04-01T05:07:36;10.90;99.90
5278;DHT22;2662;51.194;6.614;2023-04-01T05:10:04;10.90;99.90
5278;DHT22;2662;51.194;6.614;2023-04-01T05:12:32;10.90;99.90
5278;DHT22;2662;51.194;6.614;2023-04-01T05:15:02;10.80;99.90
5278;DHT22;2662;51.194;6.614;2023-04-01T05:17:29;10.80;99.90
5278;DHT22;2662;51.194;6.614;2023-04-01T05:19:56;10.90;99.90
5278;DHT22;2662;51.194;6.614;2023-04-01T05:22:22;10.80;99.90
5278;DHT22;2662;51.194;6.614;2023-04-01T05:24:49;10.80;99.90
5278;DHT22;2662;51.194;6.614;2023-04-01T05:27:16;10.80;99.90
5278;DHT22;2662;51.194;6.614;2023-04-01T05:29:44;10.80;99.90
5278;DHT22;2662;51.194;6.614;2023-04-01T05:32:11;10.80;99.90
5278;DHT22;2662;51.194;6.614;2023-04-01T05:34:38;10.80;99.90
5278;DHT22;2662;51.194;6.614;2023-04-01T05:37:04;10.80;99.90
5278;DHT22;2662;51.194;6.614;2023-04-01T05:39:36;10.80;99.90
5278;DHT22;2662;51.194;6.614;2023-04-01T05:42:03;10.80;99.90
5278;DHT22;2662;51.194;6.614;2023-04-01T05:44:30;10.80;99.90
5278;DHT22;2662;51.194;6.614;2023-04-01T05:46:58;10.80;99.90
5278;DHT22;2662;51.194;6.614;2023-04-01T05:49:24;10.80;99.90
5278;DHT22;2662;51.194;6.614;2023-04-01T05:51:51;10.80;99.90
5278;DHT22;2662;51.194;6.614;2023-04-01T05:54:18;10.90;99.90
5278;DHT22;2662;51.194;6.614;2023-04-01T05:56:45;10.90;99.90
5278;DHT22;2662;51.194;6.614;2023-04-01T05:59:12;10.90;99.90
5278;DHT22;2662;51.194;6.614;2023-04-01T06:01:39;10.80;99.90
5278;DHT22;2662;51.194;6.614;2023-04-01T06:04:11;10.80;99.90
5278;DHT22;2662;51.194;6.614;2023-04-01T06:06:39;10.80;99.90
5278;DHT22;2662;51.194;6.614;2023-04-01T06:09:12;10.80;99.90
5278;DHT22;2662;51.194;6.614;2023-04-01T06:14:37;10.90;99.90
5278;DHT22;2662;51.194;6.614;2023-04-01T06:17:19;10.90;99.90
5278;DHT22;2662;51.194;6.614;2023-04-01T06:19:51;10.90;99.90
5278;DHT22;2662;51.194;6.614;2023-04-01T06:22:57;10.90;99.90
5278;DHT22;2662;51.194;6.614;2023-04-01T06:25:49;11.00;99.90
5278;DHT22;2662;51.194;6.614;2023-04-01T06:28:41;11.00;99.90
5278;DHT22;2662;51.194;6.614;2023-04-01T06:31:16;10.90;99.90
5278;DHT22;2662;51.194;6.614;2023-04-01T06:33:56;10.90;99.90
5278;DHT22;2662;51.194;6.614;2023-04-01T06:36:42;10.90;99.90
5278;DHT22;2662;51.194;6.614;2023-04-01T06:39:22;10.90;99.90
5278;DHT22;2662;51.194;6.614;2023-04-01T06:44:49;10.90;99.90
5278;DHT22;2662;51.194;6.614;2023-04-01T06:47:28;10.90;99.90
5278;DHT22;2662;51.194;6.614;2023-04-01T06:50:06;11.00;99.90
5278;DHT22;2662;51.194;6.614;2023-04-01T06:52:43;11.00;99.90
5278;DHT22;2662;51.194;6.614;2023-04-01T06:55:23;11.00;99.90
5278;DHT22;2662;51.194;6.614;2023-04-01T06:57:55;11.10;99.90
5278;DHT22;2662;51.194;6.614;2023-04-01T07:00:28;11.10;99.90
5278;DHT22;2662;51.194;6.614;2023-04-01T07:03:02;11.00;99.90
5278;DHT22;2662;51.194;6.614;2023-04-01T07:05:33;11.00;99.90
5278;DHT22;2662;51.194;6.614;2023-04-01T07:08:04;11.00;99.90
5278;DHT22;2662;51.194;6.614;2023-04-01T07:10:38;11.10;99.90
5278;DHT22;2662;51.194;6.614;2023-04-01T07:13:14;11.10;99.90
5278;DHT22;2662;51.194;6.614;2023-04-01T07:15:44;11.10;99.90
5278;DHT22;2662;51.194;6.614;2023-04-01T07:18:15;11.20;99.90
5278;DHT22;2662;51.194;6.614;2023-04-01T07:20:43;11.20;99.90
5278;DHT22;2662;51.194;6.614;2023-04-01T07:23:20;11.30;99.90
5278;DHT22;2662;51.194;6.614;2023-04-01T07:25:52;11.40;99.90
5278;DHT22;2662;51.194;6.614;2023-04-01T07:28:20;11.40;99.90
5278;DHT22;2662;51.194;6.614;2023-04-01T07:30:53;11.40;99.90
5278;DHT22;2662;51.194;6.614;2023-04-01T07:33:33;11.40;99.90
5278;DHT22;2662;51.194;6.614;2023-04-01T07:36:05;11.30;99.90
5278;DHT22;2662;51.194;6.614;2023-04-01T07:38:42;11.30;99.90
5278;DHT22;2662;51.194;6.614;2023-04-01T07:41:19;11.30;99.90
5278;DHT22;2662;51.194;6.614;2023-04-01T07:43:58;11.20;99.90
5278;DHT22;2662;51.194;6.614;2023-04-01T07:49:23;11.20;99.90
5278;DHT22;2662;51.194;6.614;2023-04-01T07:51:59;11.10;99.90
5278;DHT22;2662;51.194;6.614;2023-04-01T07:54:35;11.20;99.90
5278;DHT22;2662;51.194;6.614;2023-04-01T07:57:07;11.20;99.90
5278;DHT22;2662;51.194;6.614;2023-04-01T07:59:40;11.30;99.90
5278;DHT22;2662;51.194;6.614;2023-04-01T08:02:20;11.30;99.90
5278;DHT22;2662;51.194;6.614;2023-04-01T08:04:57;11.40;99.90
5278;DHT22;2662;51.194;6.614;2023-04-01T08:07:27;11.30;99.90
5278;DHT22;2662;51.194;6.614;2023-04-01T08:10:04;11.40;99.90
5278;DHT22;2662;51.194;6.614;2023-04-01T08:12:44;11.50;99.90
5278;DHT22;2662;51.194;6.614;2023-04-01T08:15:20;11.50;99.90
5278;DHT22;2662;51.194;6.614;2023-04-01T08:18:03;11.50;99.90
5278;DHT22;2662;51.194;6.614;2023-04-01T08:20:37;11.50;99.90
5278;DHT22;2662;51.194;6.614;2023-04-01T08:23:10;11.60;99.90
5278;DHT22;2662;51.194;6.614;2023-04-01T08:25:44;11.60;99.90
5278;DHT22;2662;51.194;6.614;2023-04-01T08:28:17;11.60;99.90
5278;DHT22;2662;51.194;6.614;2023-04-01T08:30:48;11.70;99.90
5278;DHT22;2662;51.194;6.614;2023-04-01T08:33:19;11.70;99.90
5278;DHT22;2662;51.194;6.614;2023-04-01T08:35:51;11.70;99.90
5278;DHT22;2662;51.194;6.614;2023-04-01T08:38:23;11.70;99.90
5278;DHT22;2662;51.194;6.614;2023-04-01T08:41:16;11.70;99.90
5278;DHT22;2662;51.194;6.614;2023-04-01T08:43:59;11.70;99.90
5278;DHT22;2662;51.194;6.614;2023-04-01T08:49:42;11.50;99.90
5278;DHT22;2662;51.194;6.614;2023-04-01T08:52:35;11.60;99.90
5278;DHT22;2662;51.194;6.614;2023-04-01T08:55:22;11.60;99.90
5278;DHT22;2662;51.194;6.614;2023-04-01T09:01:09;11.60;99.90
5278;DHT22;2662;51.194;6.614;2023-04-01T09:04:02;11.60;99.90
5278;DHT22;2662;51.194;6.614;2023-04-01T09:06:35;11.60;99.90
5278;DHT22;2662;51.194;6.614;2023-04-01T09:12:15;11.70;99.90
5278;DHT22;2662;51.194;6.614;2023-04-01T09:14:55;11.70;99.90
5278;DHT22;2662;51.194;6.614;2023-04-01T09:17:51;11.80;99.90
5278;DHT22;2662;51.194;6.614;2023-04-01T09:20:42;11.80;99.90
5278;DHT22;2662;51.194;6.614;2023-04-01T09:23:29;11.70;99.90
5278;DHT22;2662;51.194;6.614;2023-04-01T09:26:16;11.70;99.90
5278;DHT22;2662;51.194;6.614;2023-04-01T09:28:56;11.60;99.90
5278;DHT22;2662;51.194;6.614;2023-04-01T09:31:45;11.60;99.90
5278;DHT22;2662;51.194;6.614;2023-04-01T09:34:26;11.50;99.90
5278;DHT22;2662;51.194;6.614;2023-04-01T09:37:15;11.60;99.90
5278;DHT22;2662;51.194;6.614;2023-04-01T09:39:52;11.60;99.90
5278;DHT22;2662;51.194;6.614;2023-04-01T09:42:42;11.70;99.90
5278;DHT22;2662;51.194;6.614;2023-04-01T09:45:25;11.70;99.90
5278;DHT22;2662;51.194;6.614;2023-04-01T09:48:04;11.90;99.90
5278;DHT22;2662;51.194;6.614;2023-04-01T09:50:38;12.10;99.90
5278;DHT22;2662;51.194;6.614;2023-04-01T09:53:27;12.20;99.90
5278;DHT22;2662;51.194;6.614;2023-04-01T09:56:41;12.40;99.90
5278;DHT22;2662;51.194;6.614;2023-04-01T09:59:42;12.40;99.90
5278;DHT22;2662;51.194;6.614;2023-04-01T10:02:51;12.40;99.90
5278;DHT22;2662;51.194;6.614;2023-04-01T10:09:17;12.50;99.90
5278;DHT22;2662;51.194;6.614;2023-04-01T10:12:02;12.50;99.90
5278;DHT22;2662;51.194;6.614;2023-04-01T10:15:00;12.60;99.90
5278;DHT22;2662;51.194;6.614;2023-04-01T10:18:05;12.60;99.90
5278;DHT22;2662;51.194;6.614;2023-04-01T10:21:02;12.70;99.90
5278;DHT22;2662;51.194;6.614;2023-04-01T10:23:53;12.90;99.90
5278;DHT22;2662;51.194;6.614;2023-04-01T10:26:58;12.90;99.90
5278;DHT22;2662;51.194;6.614;2023-04-01T10:30:15;12.90;99.90
5278;DHT22;2662;51.194;6.614;2023-04-01T10:36:04;12.90;99.90
5278;DHT22;2662;51.194;6.614;2023-04-01T10:39:11;12.90;99.90
5278;DHT22;2662;51.194;6.614;2023-04-01T10:45:10;13.00;99.90
5278;DHT22;2662;51.194;6.614;2023-04-01T10:48:14;13.00;99.90
5278;DHT22;2662;51.194;6.614;2023-04-01T10:51:11;12.90;99.90
5278;DHT22;2662;51.194;6.614;2023-04-01T10:53:49;13.00;99.90
5278;DHT22;2662;51.194;6.614;2023-04-01T10:56:33;13.00;99.90
5278;DHT22;2662;51.194;6.614;2023-04-01T10:59:45;13.00;99.90
5278;DHT22;2662;51.194;6.614;2023-04-01T11:02:57;13.10;99.90
5278;DHT22;2662;51.194;6.614;2023-04-01T11:05:58;13.10;99.90
5278;DHT22;2662;51.194;6.614;2023-04-01T11:28:09;12.60;99.90
5278;DHT22;2662;51.194;6.614;2023-04-01T11:30:56;12.60;99.90
5278;DHT22;2662;51.194;6.614;2023-04-01T11:33:31;12.50;99.90
5278;DHT22;2662;51.194;6.614;2023-04-01T11:39:03;12.40;99.90
5278;DHT22;2662;51.194;6.614;2023-04-01T11:41:40;12.40;99.90
5278;DHT22;2662;51.194;6.614;2023-04-01T11:44:16;12.40;99.90
5278;DHT22;2662;51.194;6.614;2023-04-01T11:46:56;12.50;99.90
5278;DHT22;2662;51.194;6.614;2023-04-01T11:49:36;12.50;99.90
5278;DHT22;2662;51.194;6.614;2023-04-01T11:52:18;12.60;99.90
5278;DHT22;2662;51.194;6.614;2023-04-01T11:55:24;12.60;99.90
5278;DHT22;2662;51.194;6.614;2023-04-01T11:58:08;12.70;99.90
5278;DHT22;2662;51.194;6.614;2023-04-01T12:00:46;12.60;99.90
5278;DHT22;2662;51.194;6.614;2023-04-01T12:03:33;12.60;99.90
5278;DHT22;2662;51.194;6.614;2023-04-01T12:06:11;12.50;99.90
5278;DHT22;2662;51.194;6.614;2023-04-01T12:08:46;12.50;99.90
5278;DHT22;2662;51.194;6.614;2023-04-01T12:11:19;12.50;99.90
5278;DHT22;2662;51.194;6.614;2023-04-01T12:13:53;12.50;99.90
5278;DHT22;2662;51.194;6.614;2023-04-01T12:19:48;12.40;99.90
5278;DHT22;2662;51.194;6.614;2023-04-01T12:22:34;12.30;99.90
5278;DHT22;2662;51.194;6.614;2023-04-01T12:25:16;12.30;99.90
5278;DHT22;2662;51.194;6.614;2023-04-01T12:27:54;12.30;99.90
5278;DHT22;2662;51.194;6.614;2023-04-01T12:30:54;12.40;99.90
5278;DHT22;2662;51.194;6.614;2023-04-01T12:33:43;12.50;99.90
5278;DHT22;2662;51.194;6.614;2023-04-01T12:36:23;12.40;99.90
5278;DHT22;2662;51.194;6.614;2023-04-01T12:39:07;12.40;99.90
5278;DHT22;2662;51.194;6.614;2023-04-01T12:41:42;12.50;99.90
5278;DHT22;2662;51.194;6.614;2023-04-01T12:44:29;12.60;99.90
5278;DHT22;2662;51.194;6.614;2023-04-01T12:50:23;12.50;99.90
5278;DHT22;2662;51.194;6.614;2023-04-01T12:53:01;12.50;99.90
5278;DHT22;2662;51.194;6.614;2023-04-01T12:55:40;12.50;99.90
5278;DHT22;2662;51.194;6.614;2023-04-01T12:58:30;12.70;99.90
5278;DHT22;2662;51.194;6.614;2023-04-01T13:01:19;12.80;99.90
5278;DHT22;2662;51.194;6.614;2023-04-01T13:04:25;12.90;99.90
5278;DHT22;2662;51.194;6.614;2023-04-01T13:07:10;12.90;99.90
5278;DHT22;2662;51.194;6.614;2023-04-01T13:09:47;13.10;99.90
5278;DHT22;2662;51.194;6.614;2023-04-01T13:12:39;13.30;99.90
5278;DHT22;2662;51.194;6.614;2023-04-01T13:15:32;13.50;99.90
5278;DHT22;2662;51.194;6.614;2023-04-01T13:18:12;13.60;99.90
5278;DHT22;2662;51.194;6.614;2023-04-01T13:20:45;13.70;99.90
5278;DHT22;2662;51.194;6.614;2023-04-01T13:23:33;13.70;99.90
5278;DHT22;2662;51.194;6.614;2023-04-01T13:26:09;13.80;99.90
5278;DHT22;2662;51.194;6.614;2023-04-01T13:28:44;13.80;99.90
5278;DHT22;2662;51.194;6.614;2023-04-01T13:31:33;13.90;99.90
5278;DHT22;2662;51.194;6.614;2023-04-01T13:34:13;14.10;99.90
5278;DHT22;2662;51.194;6.614;2023-04-01T13:36:50;14.20;99.90
5278;DHT22;2662;51.194;6.614;2023-04-01T13:39:29;14.20;99.90
5278;DHT22;2662;51.194;6.614;2023-04-01T13:42:10;14.10;99.90
5278;DHT22;2662;51.194;6.614;2023-04-01T13:44:45;14.00;99.90
5278;DHT22;2662;51.194;6.614;2023-04-01T13:50:34;14.00;99.90
5278;DHT22;2662;51.194;6.614;2023-04-01T13:53:21;14.00;99.90
5278;DHT22;2662;51.194;6.614;2023-04-01T13:55:57;14.00;99.90
5278;DHT22;2662;51.194;6.614;2023-04-01T13:58:48;13.90;99.90
5278;DHT22;2662;51.194;6.614;2023-04-01T14:01:23;13.90;99.90
5278;DHT22;2662;51.194;6.614;2023-04-01T14:04:12;13.70;99.90
5278;DHT22;2662;51.194;6.614;2023-04-01T14:06:58;13.90;99.90
5278;DHT22;2662;51.194;6.614;2023-04-01T14:09:41;14.20;99.90
5278;DHT22;2662;51.194;6.614;2023-04-01T14:12:16;14.40;99.90
5278;DHT22;2662;51.194;6.614;2023-04-01T14:14:57;14.50;99.90
5278;DHT22;2662;51.194;6.614;2023-04-01T14:17:38;14.50;99.90
5278;DHT22;2662;51.194;6.614;2023-04-01T14:20:26;14.30;99.90
5278;DHT22;2662;51.194;6.614;2023-04-01T14:23:06;14.20;99.90
5278;DHT22;2662;51.194;6.614;2023-04-01T14:28:36;14.40;99.90
5278;DHT22;2662;51.194;6.614;2023-04-01T14:31:20;14.60;99.90
5278;DHT22;2662;51.194;6.614;2023-04-01T14:34:00;14.80;99.90
5278;DHT22;2662;51.194;6.614;2023-04-01T14:36:50;14.80;99.90
5278;DHT22;2662;51.194;6.614;2023-04-01T14:39:33;14.40;99.90
5278;DHT22;2662;51.194;6.614;2023-04-01T14:42:17;14.50;99.90
5278;DHT22;2662;51.194;6.614;2023-04-01T14:44:57;14.50;99.90
5278;DHT22;2662;51.194;6.614;2023-04-01T14:47:39;14.60;99.90
5278;DHT22;2662;51.194;6.614;2023-04-01T14:50:14;14.40;99.90
5278;DHT22;2662;51.194;6.614;2023-04-01T14:52:44;14.20;99.90
5278;DHT22;2662;51.194;6.614;2023-04-01T14:55:29;14.20;99.90
5278;DHT22;2662;51.194;6.614;2023-04-01T14:58:09;14.10;99.90
5278;DHT22;2662;51.194;6.614;2023-04-01T15:00:48;13.90;99.90
5278;DHT22;2662;51.194;6.614;2023-04-01T15:03:20;13.90;99.90
5278;DHT22;2662;51.194;6.614;2023-04-01T15:05:55;13.70;99.90
5278;DHT22;2662;51.194;6.614;2023-04-01T15:08:25;13.60;99.90
5278;DHT22;2662;51.194;6.614;2023-04-01T15:11:03;13.40;99.90
5278;DHT22;2662;51.194;6.614;2023-04-01T15:13:58;13.20;99.90
5278;DHT22;2662;51.194;6.614;2023-04-01T15:16:31;13.10;99.90
5278;DHT22;2662;51.194;6.614;2023-04-01T15:19:11;12.90;99.90
5278;DHT22;2662;51.194;6.614;2023-04-01T15:21:56;12.90;99.90
5278;DHT22;2662;51.194;6.614;2023-04-01T15:24:38;12.70;99.90
5278;DHT22;2662;51.194;6.614;2023-04-01T15:27:27;12.80;99.90
5278;DHT22;2662;51.194;6.614;2023-04-01T15:30:06;12.90;99.90
5278;DHT22;2662;51.194;6.614;2023-04-01T15:32:50;12.70;99.90
5278;DHT22;2662;51.194;6.614;2023-04-01T15:35:25;12.80;99.90
5278;DHT22;2662;51.194;6.614;2023-04-01T15:38:04;12.70;99.90
5278;DHT22;2662;51.194;6.614;2023-04-01T15:40:38;12.70;99.90
5278;DHT22;2662;51.194;6.614;2023-04-01T15:43:19;12.70;99.90
5278;DHT22;2662;51.194;6.614;2023-04-01T15:45:54;12.70;99.90
5278;DHT22;2662;51.194;6.614;2023-04-01T15:48:35;12.70;99.90
5278;DHT22;2662;51.194;6.614;2023-04-01T15:51:31;12.70;99.90
5278;DHT22;2662;51.194;6.614;2023-04-01T15:54:51;12.80;99.90
5278;DHT22;2662;51.194;6.614;2023-04-01T15:57:29;12.70;99.90
5278;DHT22;2662;51.194;6.614;2023-04-01T16:00:22;12.70;99.90
5278;DHT22;2662;51.194;6.614;2023-04-01T16:03:17;12.70;99.90
5278;DHT22;2662;51.194;6.614;2023-04-01T16:06:01;12.70;99.90
5278;DHT22;2662;51.194;6.614;2023-04-01T16:08:49;12.80;99.90
5278;DHT22;2662;51.194;6.614;2023-04-01T16:11:27;12.90;99.90
5278;DHT22;2662;51.194;6.614;2023-04-01T16:14:08;12.90;99.90
5278;DHT22;2662;51.194;6.614;2023-04-01T16:16:49;13.00;99.90
5278;DHT22;2662;51.194;6.614;2023-04-01T16:19:51;13.00;99.90
5278;DHT22;2662;51.194;6.614;2023-04-01T16:22:22;13.00;99.90
5278;DHT22;2662;51.194;6.614;2023-04-01T16:24:54;12.90;99.90
5278;DHT22;2662;51.194;6.614;2023-04-01T16:27:31;12.70;99.90
5278;DHT22;2662;51.194;6.614;2023-04-01T16:30:22;12.70;99.90
5278;DHT22;2662;51.194;6.614;2023-04-01T16:32:54;12.70;99.90
5278;DHT22;2662;51.194;6.614;2023-04-01T16:35:30;12.60;99.90
5278;DHT22;2662;51.194;6.614;2023-04-01T16:38:04;12.60;99.90
5278;DHT22;2662;51.194;6.614;2023-04-01T16:40:41;12.50;99.90
5278;DHT22;2662;51.194;6.614;2023-04-01T16:43:20;12.40;99.90
5278;DHT22;2662;51.194;6.614;2023-04-01T16:45:58;12.30;99.90
5278;DHT22;2662;51.194;6.614;2023-04-01T16:48:45;12.30;99.90
5278;DHT22;2662;51.194;6.614;2023-04-01T16:51:17;12.30;99.90
5278;DHT22;2662;51.194;6.614;2023-04-01T16:53:48;12.30;99.90
5278;DHT22;2662;51.194;6.614;2023-04-01T16:56:21;12.30;99.90
5278;DHT22;2662;51.194;6.614;2023-04-01T16:58:58;12.20;99.90
5278;DHT22;2662;51.194;6.614;2023-04-01T17:01:30;12.20;99.90
5278;DHT22;2662;51.194;6.614;2023-04-01T17:04:07;12.20;99.90
5278;DHT22;2662;51.194;6.614;2023-04-01T17:06:40;12.20;99.90
5278;DHT22;2662;51.194;6.614;2023-04-01T17:09:20;12.20;99.90
5278;DHT22;2662;51.194;6.614;2023-04-01T17:11:56;12.10;99.90
5278;DHT22;2662;51.194;6.614;2023-04-01T17:14:33;12.10;99.90
5278;DHT22;2662;51.194;6.614;2023-04-01T17:17:17;12.10;99.90
5278;DHT22;2662;51.194;6.614;2023-04-01T17:19:51;12.00;99.90
5278;DHT22;2662;51.194;6.614;2023-04-01T17:22:28;12.00;99.90
5278;DHT22;2662;51.194;6.614;2023-04-01T17:25:13;12.00;99.90
5278;DHT22;2662;51.194;6.614;2023-04-01T17:27:48;12.00;99.90
5278;DHT22;2662;51.194;6.614;2023-04-01T17:30:30;12.00;99.90
5278;DHT22;2662;51.194;6.614;2023-04-01T17:33:15;12.00;99.90
5278;DHT22;2662;51.194;6.614;2023-04-01T17:35:52;11.90;99.90
5278;DHT22;2662;51.194;6.614;2023-04-01T17:38:34;11.90;99.90
5278;DHT22;2662;51.194;6.614;2023-04-01T17:41:09;11.80;99.90
5278;DHT22;2662;51.194;6.614;2023-04-01T17:43:44;11.70;99.90
5278;DHT22;2662;51.194;6.614;2023-04-01T17:46:29;11.60;99.90
5278;DHT22;2662;51.194;6.614;2023-04-01T17:49:02;11.60;99.90
5278;DHT22;2662;51.194;6.614;2023-04-01T17:51:35;11.60;99.90
5278;DHT22;2662;51.194;6.614;2023-04-01T17:54:14;11.60;99.90
5278;DHT22;2662;51.194;6.614;2023-04-01T17:56:52;11.60;99.90
5278;DHT22;2662;51.194;6.614;2023-04-01T17:59:26;11.60;99.90
5278;DHT22;2662;51.194;6.614;2023-04-01T18:02:03;11.60;99.90
5278;DHT22;2662;51.194;6.614;2023-04-01T18:04:44;11.60;99.90
5278;DHT22;2662;51.194;6.614;2023-04-01T18:07:32;11.60;99.90